createdAt,value
2019-04-06T00:01:03.379Z,97008.72
2019-04-06T00:03:33.718Z,97008.47
2019-04-06T00:06:03.211Z,97009.63
2019-04-06T00:08:32.543Z,97006.02
2019-04-06T00:11:01.934Z,97001.47
2019-04-06T00:13:31.276Z,97001.31
2019-04-06T00:16:04.817Z,97006.02
2019-04-06T00:18:34.198Z,97001.47
2019-04-06T00:21:03.539Z,97003.52
2019-04-06T00:23:32.808Z,97004.59
2019-04-06T00:26:02.144Z,97010.11
2019-04-06T00:28:31.412Z,97006.80
2019-04-06T00:31:12.488Z,97008.54
2019-04-06T00:33:41.788Z,97014.05
2019-04-06T00:36:11.128Z,97011.19
2019-04-06T00:38:40.495Z,97008.85
2019-04-06T00:41:11.296Z,97011.81
2019-04-06T00:43:40.627Z,97013.45
2019-04-06T00:46:09.933Z,97012.61
2019-04-06T00:48:39.264Z,97011.88
2019-04-06T00:51:08.619Z,97021.39
2019-04-06T00:53:37.920Z,97013.53
2019-04-06T00:56:07.350Z,97005.02
2019-04-06T00:58:36.704Z,97013.31
2019-04-06T01:01:06.341Z,97017.08
2019-04-06T01:03:35.631Z,97014.23
2019-04-06T01:06:04.942Z,97012.44
2019-04-06T01:08:34.285Z,97007.73
2019-04-06T01:11:03.601Z,97007.95
2019-04-06T01:13:32.947Z,97018.23
2019-04-06T01:16:02.276Z,97007.95
2019-04-06T01:18:31.644Z,97007.01
2019-04-06T01:21:00.955Z,97009.81
2019-04-06T01:23:30.250Z,97015.09
2019-04-06T01:26:07.059Z,97014.45
2019-04-06T01:28:30.541Z,97012.03
2019-04-06T01:31:01.730Z,97016.84
2019-04-06T01:33:31.087Z,97015.48
2019-04-06T01:36:00.447Z,97012.33
2019-04-06T01:38:41.029Z,97008.55
2019-04-06T01:41:10.308Z,97015.83
2019-04-06T01:43:39.679Z,97012.98
2019-04-06T01:46:08.983Z,97015.22
2019-04-06T01:48:38.304Z,97014.56
2019-04-06T01:51:07.587Z,97010.28
2019-04-06T01:53:36.883Z,96996.44
2019-04-06T01:56:06.203Z,96991.21
2019-04-06T01:58:35.507Z,96990.33
2019-04-06T02:01:13.679Z,97000.71
2019-04-06T02:03:43.044Z,96996.64
2019-04-06T02:06:12.418Z,96995.86
2019-04-06T02:08:41.697Z,96993.36
2019-04-06T02:11:11.009Z,96989.77
2019-04-06T02:13:40.359Z,96988.95
2019-04-06T02:16:09.751Z,96981.77
2019-04-06T02:18:39.068Z,96991.03
2019-04-06T02:21:08.331Z,96990.59
2019-04-06T02:23:37.691Z,96992.36
2019-04-06T02:26:07.029Z,96985.01
2019-04-06T02:28:36.359Z,96989.84
2019-04-06T02:31:18.068Z,96983.41
2019-04-06T02:34:04.037Z,96987.50
2019-04-06T02:36:58.376Z,96994.05
2019-04-06T02:39:57.224Z,97003.09
2019-04-06T02:42:33.964Z,96999.99
2019-04-06T02:45:03.367Z,97001.59
2019-04-06T02:47:32.775Z,97003.24
2019-04-06T02:50:02.110Z,97002.62
2019-04-06T02:52:31.483Z,97009.38
2019-04-06T02:55:01.823Z,97008.71
2019-04-06T02:57:31.096Z,97012.11
2019-04-06T03:00:00.577Z,97014.03
2019-04-06T03:02:29.977Z,97016.85
2019-04-06T03:04:59.359Z,97019.84
2019-04-06T03:07:28.961Z,97016.39
2019-04-06T03:09:58.480Z,97017.25
2019-04-06T03:12:28.208Z,97013.41
2019-04-06T03:14:57.658Z,97015.11
2019-04-06T03:17:28.087Z,97014.51
2019-04-06T03:19:59.137Z,97006.58
2019-04-06T03:22:28.613Z,97011.77
2019-04-06T03:24:57.932Z,97006.58
2019-04-06T03:27:27.259Z,97010.67
2019-04-06T03:29:58.889Z,97010.00
2019-04-06T03:32:27.952Z,97012.67
2019-04-06T03:34:57.378Z,97014.28
2019-04-06T03:37:29.709Z,97009.73
2019-04-06T03:40:00.501Z,97013.37
2019-04-06T03:42:29.771Z,97006.16
2019-04-06T03:44:59.126Z,97015.19
2019-04-06T03:47:29.576Z,97014.75
2019-04-06T03:49:58.956Z,97019.02
2019-04-06T03:52:28.499Z,97016.77
2019-04-06T03:54:59.604Z,97016.42
2019-04-06T03:57:28.903Z,97016.33
2019-04-06T03:59:58.226Z,97021.97
2019-04-06T04:02:27.536Z,97014.42
2019-04-06T04:04:56.896Z,97017.45
2019-04-06T04:07:26.161Z,97022.76
2019-04-06T04:09:55.583Z,97014.32
2019-04-06T04:12:24.860Z,97017.46
2019-04-06T04:14:54.178Z,97009.80
2019-04-06T04:17:23.640Z,97008.45
2019-04-06T04:19:53.295Z,97008.45
2019-04-06T04:22:24.081Z,97007.52
2019-04-06T04:24:53.379Z,97012.93
2019-04-06T04:27:29.341Z,97011.38
2019-04-06T04:29:53.825Z,97011.80
2019-04-06T04:32:23.129Z,97014.28
2019-04-06T04:34:52.423Z,97018.70
2019-04-06T04:37:21.749Z,97012.27
2019-04-06T04:39:52.905Z,97010.02
2019-04-06T04:42:22.400Z,97009.46
2019-04-06T04:44:51.744Z,97014.65
2019-04-06T04:47:21.038Z,97019.06
2019-04-06T04:49:50.375Z,97020.17
2019-04-06T04:52:19.677Z,97026.94
2019-04-06T04:54:49.005Z,97024.24
2019-04-06T04:57:18.296Z,97028.53
2019-04-06T04:59:47.619Z,97027.17
2019-04-06T05:02:17.066Z,97033.93
2019-04-06T05:04:46.407Z,97034.38
2019-04-06T05:07:15.678Z,97044.30
2019-04-06T05:09:44.988Z,97047.33
2019-04-06T05:12:14.287Z,97044.73
2019-04-06T05:15:03.776Z,97049.03
2019-04-06T05:17:33.083Z,97053.55
2019-04-06T05:20:03.753Z,97053.53
2019-04-06T05:22:33.053Z,97052.19
2019-04-06T05:25:02.501Z,97051.50
2019-04-06T05:27:31.865Z,97055.11
2019-04-06T05:30:01.270Z,97051.50
2019-04-06T05:32:30.629Z,97059.19
2019-04-06T05:34:59.922Z,97060.30
2019-04-06T05:37:29.289Z,97067.75
2019-04-06T05:39:58.640Z,97061.77
2019-04-06T05:42:27.993Z,97057.47
2019-04-06T05:44:57.298Z,97066.84
2019-04-06T05:47:26.663Z,97072.92
2019-04-06T05:49:55.983Z,97074.97
2019-04-06T05:52:25.284Z,97074.39
2019-04-06T05:54:54.612Z,97074.06
2019-04-06T05:57:23.880Z,97076.73
2019-04-06T05:59:53.158Z,97070.20
2019-04-06T06:02:22.543Z,97075.61
2019-04-06T06:04:51.825Z,97083.78
2019-04-06T06:07:21.466Z,97089.49
2019-04-06T06:09:50.794Z,97079.65
2019-04-06T06:12:20.852Z,97081.00
2019-04-06T06:14:50.119Z,97087.32
2019-04-06T06:17:19.450Z,97089.09
2019-04-06T06:19:48.759Z,97089.20
2019-04-06T06:22:18.182Z,97088.61
2019-04-06T06:24:47.510Z,97086.59
2019-04-06T06:27:16.781Z,97087.96
2019-04-06T06:29:46.108Z,97082.77
2019-04-06T06:32:15.379Z,97085.25
2019-04-06T06:34:44.687Z,97086.59
2019-04-06T06:37:14.001Z,97084.31
2019-04-06T06:39:43.326Z,97097.66
2019-04-06T06:42:12.678Z,97095.84
2019-04-06T06:44:43.184Z,97095.12
2019-04-06T06:47:12.500Z,97089.37
2019-04-06T06:49:41.832Z,97087.34
2019-04-06T06:52:11.187Z,97086.73
2019-04-06T06:54:40.451Z,97082.73
2019-04-06T06:57:09.997Z,97085.11
2019-04-06T06:59:39.253Z,97082.45
2019-04-06T07:02:08.571Z,97077.85
2019-04-06T07:04:37.870Z,97082.78
2019-04-06T07:07:07.243Z,97080.19
2019-04-06T07:09:36.524Z,97086.01
2019-04-06T07:12:06.062Z,97084.70
2019-04-06T07:14:35.330Z,97086.02
2019-04-06T07:17:04.628Z,97078.75
2019-04-06T07:19:35.378Z,97082.42
2019-04-06T07:22:04.667Z,97081.52
2019-04-06T07:24:33.961Z,97083.48
2019-04-06T07:27:03.234Z,97084.58
2019-04-06T07:29:32.703Z,97084.38
2019-04-06T07:32:03.790Z,97090.03
2019-04-06T07:34:33.102Z,97078.62
2019-04-06T07:37:02.411Z,97087.41
2019-04-06T07:39:31.720Z,97076.48
2019-04-06T07:42:01.039Z,97085.45
2019-04-06T07:44:30.333Z,97088.07
2019-04-06T07:46:59.641Z,97093.14
2019-04-06T07:49:29.165Z,97084.06
2019-04-06T07:51:59.624Z,97093.90
2019-04-06T07:54:28.915Z,97091.98
2019-04-06T07:56:58.212Z,97089.64
2019-04-06T07:59:27.604Z,97086.38
2019-04-06T08:01:57.017Z,97091.16
2019-04-06T08:04:26.310Z,97074.91
2019-04-06T08:06:55.803Z,97069.27
2019-04-06T08:09:25.385Z,97065.78
2019-04-06T08:11:56.193Z,97060.81
2019-04-06T08:14:25.511Z,97059.56
2019-04-06T08:16:54.825Z,97060.24
2019-04-06T08:19:24.212Z,97054.03
2019-04-06T08:21:53.545Z,97053.25
2019-04-06T08:24:22.846Z,97054.42
2019-04-06T08:26:52.319Z,97053.34
2019-04-06T08:29:21.620Z,97053.02
2019-04-06T08:31:52.732Z,97050.27
2019-04-06T08:34:22.030Z,97056.66
2019-04-06T08:36:51.331Z,97052.27
2019-04-06T08:39:20.660Z,97047.16
2019-04-06T08:41:50.007Z,97042.62
2019-04-06T08:44:19.331Z,97047.46
2019-04-06T08:46:49.718Z,97048.16
2019-04-06T08:49:19.013Z,97050.47
2019-04-06T08:51:48.300Z,97043.66
2019-04-06T08:54:19.089Z,97046.02
2019-04-06T08:56:48.507Z,97042.42
2019-04-06T08:59:20.359Z,97041.88
2019-04-06T09:01:50.029Z,97041.92
2019-04-06T09:04:19.422Z,97040.03
2019-04-06T09:06:48.729Z,97038.63
2019-04-06T09:09:18.009Z,97045.93
2019-04-06T09:11:47.346Z,97043.36
2019-04-06T09:14:16.739Z,97042.78
2019-04-06T09:16:46.092Z,97034.36
2019-04-06T09:19:15.413Z,97034.99
2019-04-06T09:21:44.705Z,97038.03
2019-04-06T09:24:14.244Z,97032.95
2019-04-06T09:26:48.006Z,97028.21
2019-04-06T09:29:23.297Z,97025.56
2019-04-06T09:31:48.524Z,97012.82
2019-04-06T09:34:17.894Z,97020.80
2019-04-06T09:36:48.413Z,97008.67
2019-04-06T09:39:17.696Z,97014.16
2019-04-06T09:41:48.494Z,97007.66
2019-04-06T09:44:39.821Z,96999.56
2019-04-06T09:47:21.433Z,97008.07
2019-04-06T09:50:08.690Z,96995.27
2019-04-06T09:53:06.369Z,96991.35
2019-04-06T09:55:45.760Z,96995.85
2019-04-06T09:58:37.161Z,96991.58
2019-04-06T10:01:37.308Z,96987.75
2019-04-06T10:04:09.092Z,96975.55
2019-04-06T10:07:17.412Z,96976.80
2019-04-06T10:10:17.600Z,96988.63
2019-04-06T10:13:20.940Z,96970.17
2019-04-06T10:16:05.984Z,96978.78
2019-04-06T10:19:06.577Z,96973.99
2019-04-06T10:21:47.434Z,96974.85
2019-04-06T10:24:54.227Z,96974.45
2019-04-06T10:27:40.553Z,96961.34
2019-04-06T10:30:44.397Z,96959.72
2019-04-06T10:33:32.651Z,96958.12
2019-04-06T10:36:14.276Z,96954.38
2019-04-06T10:39:01.038Z,96960.36
2019-04-06T10:41:40.796Z,96955.06
2019-04-06T10:44:19.450Z,96958.24
2019-04-06T10:47:18.159Z,96958.02
2019-04-06T10:49:53.090Z,96951.72
2019-04-06T10:52:53.194Z,96954.03
2019-04-06T10:55:44.157Z,96956.78
2019-04-06T10:58:40.294Z,96939.13
2019-04-06T11:01:31.853Z,96928.67
2019-04-06T11:04:06.987Z,96932.73
2019-04-06T11:06:45.631Z,96919.47
2019-04-06T11:09:26.699Z,96921.69
2019-04-06T11:12:11.197Z,96922.79
2019-04-06T11:14:52.518Z,96920.34
2019-04-06T11:17:52.930Z,96907.55
2019-04-06T11:20:42.964Z,96905.66
2019-04-06T11:23:29.887Z,96891.93
2019-04-06T11:26:33.450Z,96894.80
2019-04-06T11:29:31.079Z,96887.52
2019-04-06T11:32:14.489Z,96876.70
2019-04-06T11:35:20.985Z,96880.31
2019-04-06T11:38:21.326Z,96879.05
2019-04-06T11:41:08.843Z,96863.73
2019-04-06T11:43:52.648Z,96866.57
2019-04-06T11:46:46.965Z,96870.63
2019-04-06T11:49:37.264Z,96864.09
2019-04-06T11:52:30.785Z,96861.08
2019-04-06T11:55:20.584Z,96856.61
2019-04-06T11:58:20.811Z,96855.61
2019-04-06T12:01:15.828Z,96855.22
2019-04-06T12:04:04.860Z,96840.84
2019-04-06T12:07:00.962Z,96848.46
2019-04-06T12:09:47.353Z,96850.09
2019-04-06T12:12:42.877Z,96850.29
2019-04-06T12:15:21.864Z,96844.03
2019-04-06T12:18:06.849Z,96845.42
2019-04-06T12:20:55.508Z,96838.93
2019-04-06T12:23:51.829Z,96828.26
2019-04-06T12:26:40.006Z,96824.48
2019-04-06T12:29:27.199Z,96826.91
2019-04-06T12:32:15.485Z,96822.87
2019-04-06T12:35:12.350Z,96835.38
2019-04-06T12:38:03.124Z,96814.63
2019-04-06T12:40:51.181Z,96814.63
2019-04-06T12:43:42.753Z,96821.50
2019-04-06T12:46:33.486Z,96806.64
2019-04-06T12:49:15.463Z,96809.60
2019-04-06T12:52:06.659Z,96805.77
2019-04-06T12:54:49.997Z,96808.73
2019-04-06T12:57:38.230Z,96803.99
2019-04-06T13:00:27.088Z,96800.63
2019-04-06T13:03:24.651Z,96797.52
2019-04-06T13:06:03.482Z,96808.59
2019-04-06T13:08:54.742Z,96800.98
2019-04-06T13:11:42.156Z,96798.47
2019-04-06T13:14:30.736Z,96796.22
2019-04-06T13:17:17.937Z,96792.13
2019-04-06T13:20:15.146Z,96790.25
2019-04-06T13:22:57.362Z,96785.25
2019-04-06T13:25:40.123Z,96790.72
2019-04-06T13:28:40.771Z,96781.30
2019-04-06T13:31:41.098Z,96785.95
2019-04-06T13:34:18.957Z,96782.51
2019-04-06T13:37:01.580Z,96773.70
2019-04-06T13:39:52.859Z,96767.89
2019-04-06T13:42:46.233Z,96767.89
2019-04-06T13:45:29.305Z,96777.89
2019-04-06T13:48:23.378Z,96782.98
2019-04-06T13:51:24.207Z,96776.54
2019-04-06T13:54:01.536Z,96774.66
2019-04-06T13:56:58.909Z,96773.59
2019-04-06T13:59:39.078Z,96770.86
2019-04-06T14:02:33.691Z,96793.20
2019-04-06T14:05:24.270Z,96784.77
2019-04-06T14:08:12.504Z,96782.69
2019-04-06T14:10:59.694Z,96782.69
2019-04-06T14:13:37.765Z,96782.84
2019-04-06T14:16:21.885Z,96778.53
2019-04-06T14:19:10.495Z,96771.95
2019-04-06T14:22:14.098Z,96767.63
2019-04-06T14:25:03.740Z,96771.80
2019-04-06T14:27:40.018Z,96767.48
2019-04-06T14:30:15.656Z,96767.48
2019-04-06T14:33:04.133Z,96775.77
2019-04-06T14:36:09.461Z,96791.13
2019-04-06T14:38:50.985Z,96784.23
2019-04-06T14:41:38.088Z,96779.48
2019-04-06T14:44:19.658Z,96776.70
2019-04-06T14:47:06.259Z,96777.98
2019-04-06T14:50:06.484Z,96783.34
2019-04-06T14:52:52.843Z,96787.16
2019-04-06T14:55:43.516Z,96789.41
2019-04-06T14:58:36.188Z,96791.55
2019-04-06T15:01:12.254Z,96788.02
2019-04-06T15:04:06.625Z,96792.18
2019-04-06T15:07:13.588Z,96790.95
2019-04-06T15:10:00.283Z,96776.11
2019-04-06T15:13:03.689Z,96783.52
2019-04-06T15:15:53.305Z,96766.45
2019-04-06T15:18:41.936Z,96765.94
2019-04-06T15:21:21.059Z,96773.36
2019-04-06T15:24:12.637Z,96769.72
2019-04-06T15:27:13.439Z,96771.94
2019-04-06T15:29:48.865Z,96766.78
2019-04-06T15:32:33.618Z,96762.81
2019-04-06T15:35:21.854Z,96754.87
2019-04-06T15:38:13.270Z,96763.09
2019-04-06T15:40:57.828Z,96766.63
2019-04-06T15:43:45.926Z,96757.98
2019-04-06T15:46:43.729Z,96767.48
2019-04-06T15:49:35.167Z,96764.38
2019-04-06T15:52:35.660Z,96768.61
2019-04-06T15:55:25.934Z,96772.28
2019-04-06T15:58:07.709Z,96773.62
2019-04-06T16:01:02.827Z,96767.63
2019-04-06T16:03:54.406Z,96770.22
2019-04-06T16:06:34.735Z,96765.72
2019-04-06T16:09:24.025Z,96764.32
2019-04-06T16:12:06.747Z,96766.55
2019-04-06T16:14:46.175Z,96764.67
2019-04-06T16:17:27.831Z,96766.05
2019-04-06T16:20:16.191Z,96756.86
2019-04-06T16:23:24.254Z,96772.29
2019-04-06T16:26:24.783Z,96767.19
2019-04-06T16:29:14.006Z,96759.09
2019-04-06T16:32:15.050Z,96768.22
2019-04-06T16:35:09.491Z,96764.78
2019-04-06T16:38:02.900Z,96758.20
2019-04-06T16:40:51.755Z,96766.66
2019-04-06T16:43:45.990Z,96756.47
2019-04-06T16:46:39.049Z,96759.72
2019-04-06T16:49:27.087Z,96757.62
2019-04-06T16:52:27.179Z,96764.58
2019-04-06T16:55:07.810Z,96761.98
2019-04-06T16:57:47.267Z,96764.80
2019-04-06T17:00:36.890Z,96777.87
2019-04-06T17:03:15.326Z,96779.73
2019-04-06T17:06:18.800Z,96771.56
2019-04-06T17:09:09.873Z,96778.81
2019-04-06T17:11:59.274Z,96773.60
2019-04-06T17:14:46.253Z,96780.77
2019-04-06T17:17:41.051Z,96774.95
2019-04-06T17:20:28.575Z,96772.95
2019-04-06T17:23:27.293Z,96782.91
2019-04-06T17:26:04.779Z,96776.27
2019-04-06T17:28:51.912Z,96780.01
2019-04-06T17:31:44.171Z,96778.95
2019-04-06T17:34:34.063Z,96782.77
2019-04-06T17:37:16.063Z,96780.45
2019-04-06T17:40:07.547Z,96780.93
2019-04-06T17:42:55.910Z,96787.16
2019-04-06T17:45:43.823Z,96786.67
2019-04-06T17:48:31.669Z,96785.61
2019-04-06T17:51:14.575Z,96781.58
2019-04-06T17:54:11.861Z,96789.70
2019-04-06T17:56:52.540Z,96787.55
2019-04-06T17:59:51.485Z,96795.39
2019-04-06T18:02:47.892Z,96788.73
2019-04-06T18:05:29.365Z,96790.66
2019-04-06T18:08:21.247Z,96791.11
2019-04-06T18:11:08.767Z,96795.33
2019-04-06T18:13:50.969Z,96794.14
2019-04-06T18:16:23.339Z,96796.83
2019-04-06T18:18:52.627Z,96794.98
2019-04-06T18:21:22.261Z,96799.00
2019-04-06T18:23:51.711Z,96802.62
2019-04-06T18:26:20.995Z,96803.58
2019-04-06T18:28:50.840Z,96808.72
2019-04-06T18:31:54.287Z,96815.70
2019-04-06T18:34:23.891Z,96814.40
2019-04-06T18:36:59.536Z,96819.11
2019-04-06T18:39:31.269Z,96818.56
2019-04-06T18:42:00.517Z,96824.05
2019-04-06T18:44:29.824Z,96820.25
2019-04-06T18:47:00.825Z,96823.36
2019-04-06T18:49:30.079Z,96819.67
2019-04-06T18:51:59.408Z,96828.36
2019-04-06T18:54:29.046Z,96828.36
2019-04-06T18:56:58.370Z,96829.58
2019-04-06T18:59:27.674Z,96818.45
2019-04-06T19:01:57.332Z,96822.25
2019-04-06T19:04:27.381Z,96823.72
2019-04-06T19:06:56.818Z,96822.59
2019-04-06T19:09:26.105Z,96823.96
2019-04-06T19:11:57.031Z,96822.39
2019-04-06T19:14:26.932Z,96831.45
2019-04-06T19:16:56.275Z,96829.50
2019-04-06T19:19:26.123Z,96834.32
2019-04-06T19:21:55.632Z,96832.95
2019-04-06T19:24:25.018Z,96833.73
2019-04-06T19:26:54.315Z,96843.55
2019-04-06T19:29:23.962Z,96841.02
2019-04-06T19:31:53.308Z,96838.72
2019-04-06T19:34:22.612Z,96837.59
2019-04-06T19:36:52.173Z,96840.20
2019-04-06T19:39:21.603Z,96847.21
2019-04-06T19:41:51.986Z,96842.38
2019-04-06T19:44:21.660Z,96842.00
2019-04-06T19:46:51.307Z,96843.75
2019-04-06T19:49:20.604Z,96841.14
2019-04-06T19:51:49.899Z,96845.24
2019-04-06T19:54:19.236Z,96844.27
2019-04-06T19:56:48.640Z,96848.03
2019-04-06T19:59:17.902Z,96842.98
2019-04-06T20:01:47.252Z,96844.19
2019-04-06T20:04:16.833Z,96843.78
2019-04-06T20:06:46.878Z,96846.31
2019-04-06T20:09:16.212Z,96846.36
2019-04-06T20:11:45.602Z,96852.48
2019-04-06T20:14:14.862Z,96842.69
2019-04-06T20:16:45.142Z,96846.59
2019-04-06T20:19:14.417Z,96841.12
2019-04-06T20:21:43.726Z,96849.18
2019-04-06T20:24:12.987Z,96851.34
2019-04-06T20:26:42.780Z,96849.05
2019-04-06T20:29:12.654Z,96848.07
2019-04-06T20:31:42.089Z,96852.77
2019-04-06T20:34:11.876Z,96849.84
2019-04-06T20:36:41.156Z,96846.77
2019-04-06T20:39:11.289Z,96852.24
2019-04-06T20:41:40.628Z,96848.53
2019-04-06T20:44:09.917Z,96854.55
2019-04-06T20:46:39.785Z,96859.89
2019-04-06T20:49:09.290Z,96857.36
2019-04-06T20:51:38.988Z,96855.98
2019-04-06T20:54:09.055Z,96848.95
2019-04-06T20:56:38.456Z,96854.86
2019-04-06T20:59:09.069Z,96862.32
2019-04-06T21:01:39.836Z,96865.62
2019-04-06T21:04:09.239Z,96864.67
2019-04-06T21:06:39.124Z,96867.60
2019-04-06T21:09:14.035Z,96861.34
2019-04-06T21:11:43.452Z,96863.48
2019-04-06T21:14:14.381Z,96853.13
2019-04-06T21:16:43.863Z,96850.19
2019-04-06T21:19:13.200Z,96851.16
2019-04-06T21:21:42.742Z,96851.53
2019-04-06T21:24:12.497Z,96856.84
2019-04-06T21:26:43.315Z,96855.47
2019-04-06T21:29:12.650Z,96849.21
2019-04-06T21:32:01.627Z,96847.64
2019-04-06T21:34:32.848Z,96855.88
2019-04-06T21:37:02.137Z,96853.14
2019-04-06T21:39:31.447Z,96848.08
2019-04-06T21:42:00.789Z,96857.84
2019-04-06T21:44:30.051Z,96853.92
2019-04-06T21:46:59.383Z,96855.49
2019-04-06T21:49:29.090Z,96851.19
2019-04-06T21:51:58.701Z,96858.62
2019-04-06T21:54:28.643Z,96851.58
2019-04-06T21:56:58.404Z,96856.26
2019-04-06T21:59:28.065Z,96848.80
2019-04-06T22:01:59.469Z,96853.89
2019-04-06T22:04:29.336Z,96849.02
2019-04-06T22:06:58.787Z,96857.58
2019-04-06T22:09:28.791Z,96858.75
2019-04-06T22:11:58.532Z,96852.68
2019-04-06T22:14:28.404Z,96855.81
2019-04-06T22:16:58.390Z,96856.73
2019-04-06T22:19:27.941Z,96855.36
2019-04-06T22:21:57.304Z,96856.91
2019-04-06T22:24:27.223Z,96858.84
2019-04-06T22:26:57.407Z,96855.72
2019-04-06T22:29:27.500Z,96856.45
2019-04-06T22:31:58.473Z,96859.02
2019-04-06T22:34:37.155Z,96852.55
2019-04-06T22:36:59.758Z,96850.39
2019-04-06T22:39:29.859Z,96852.53
2019-04-06T22:41:59.355Z,96851.53
2019-04-06T22:44:29.100Z,96852.90
2019-04-06T22:46:58.899Z,96846.83
2019-04-06T22:49:28.428Z,96839.78
2019-04-06T22:51:58.453Z,96839.18
2019-04-06T22:54:28.727Z,96839.94
2019-04-06T22:56:58.827Z,96826.89
2019-04-06T22:59:30.009Z,96829.41
2019-04-06T23:01:59.800Z,96827.81
2019-04-06T23:04:47.236Z,96832.87
2019-04-06T23:07:13.369Z,96832.69
2019-04-06T23:09:44.361Z,96835.78
2019-04-06T23:12:18.037Z,96823.13
2019-04-06T23:14:49.161Z,96832.83
2019-04-06T23:17:18.979Z,96833.18
2019-04-06T23:19:48.830Z,96830.05
2019-04-06T23:22:19.617Z,96827.92
2019-04-06T23:24:48.863Z,96828.88
2019-04-06T23:27:18.287Z,96829.36
2019-04-06T23:29:47.600Z,96833.56
2019-04-06T23:32:16.988Z,96823.37
2019-04-06T23:34:59.451Z,96826.05
2019-04-06T23:37:20.542Z,96820.97
2019-04-06T23:39:50.436Z,96820.80
2019-04-06T23:42:20.521Z,96823.32
2019-04-06T23:44:49.950Z,96821.52
2019-04-06T23:47:19.244Z,96825.41
2019-04-06T23:49:48.546Z,96817.92
2019-04-06T23:52:18.311Z,96812.78
2019-04-06T23:54:49.201Z,96818.64
2019-04-06T23:57:18.722Z,96813.36
2019-04-06T23:59:47.933Z,96809.61
